Terminal Aerodrome Forecast
Issued by NWS

Home | Current Version | Previous Version | Text Only | Print | Product List | Glossary On
Versions: 1 2 3 4 5 6 7 8 9 10 11 12 13 14 15 16 17 18 19 20 21 22 23 24 25 26 27 28 29
396
FTUS41 KILN 041720
TAFLUK
TAF
KLUK 041720Z 0418/0518 24011G18KT 6SM -SHRA VCTS SCT025 OVC050CB
     FM042100 30012G17KT P6SM VCSH BKN015 OVC025
     FM050200 31011KT P6SM VCSH OVC015
     FM050800 33008KT P6SM VCSH OVC008
     FM051300 35010KT P6SM BKN025=

USA.gov is the U.S. government's official web portal to all federal, state and local government web resources and services.